createdAt,value
2022-08-19T00:00:24.828Z,6.85
2022-08-19T00:01:29.055Z,6.72
2022-08-19T00:02:32.213Z,7.10
2022-08-19T00:03:34.043Z,7.50
2022-08-19T00:04:37.767Z,7.80
2022-08-19T00:05:39.748Z,7.82
2022-08-19T00:06:44.090Z,8.10
2022-08-19T00:07:46.713Z,7.57
2022-08-19T00:08:48.458Z,7.32
2022-08-19T00:09:50.168Z,7.38
2022-08-19T00:10:52.104Z,7.53
2022-08-19T00:11:56.692Z,7.88
2022-08-19T00:12:58.485Z,7.15
2022-08-19T00:14:00.281Z,7.80
2022-08-19T00:15:01.982Z,6.85
2022-08-19T00:16:04.768Z,7.80
2022-08-19T00:17:07.650Z,7.45
2022-08-19T00:18:09.340Z,7.30
2022-08-19T00:19:11.740Z,7.22
2022-08-19T00:20:18.647Z,6.70
2022-08-19T00:21:20.455Z,6.45
2022-08-19T00:22:22.170Z,7.38
2022-08-19T00:23:23.886Z,7.18
2022-08-19T00:24:25.844Z,7.10
2022-08-19T00:25:30.392Z,7.05
2022-08-19T00:26:32.422Z,7.50
2022-08-19T00:27:34.908Z,6.47
2022-08-19T00:28:37.330Z,6.80
2022-08-19T00:29:39.318Z,7.18
2022-08-19T00:30:41.986Z,7.20
2022-08-19T00:31:44.931Z,6.95
2022-08-19T00:32:46.731Z,6.82
2022-08-19T00:33:50.412Z,7.30
2022-08-19T00:34:54.587Z,7.78
2022-08-19T00:35:56.744Z,7.20
2022-08-19T00:36:59.328Z,6.53
2022-08-19T00:38:01.072Z,7.38
2022-08-19T00:39:02.838Z,7.25
2022-08-19T00:40:07.305Z,7.63
2022-08-19T00:41:17.214Z,6.70
2022-08-19T00:42:21.221Z,6.68
2022-08-19T00:43:26.941Z,6.80
2022-08-19T00:44:31.374Z,6.78
2022-08-19T00:45:33.318Z,7.57
2022-08-19T00:46:41.223Z,7.10
2022-08-19T00:47:42.927Z,7.00
2022-08-19T00:48:44.650Z,6.78
2022-08-19T00:49:53.841Z,7.18
2022-08-19T00:50:56.660Z,6.78
2022-08-19T00:52:05.394Z,6.78
2022-08-19T00:53:07.851Z,6.85
2022-08-19T00:54:10.305Z,6.78
2022-08-19T00:55:22.927Z,7.20
2022-08-19T00:56:25.105Z,6.82
2022-08-19T00:57:31.765Z,7.00
2022-08-19T00:58:35.852Z,6.75
2022-08-19T00:59:56.491Z,6.90
2022-08-19T01:01:05.588Z,7.20
2022-08-19T01:02:08.072Z,6.97
2022-08-19T01:03:13.813Z,6.65
2022-08-19T01:04:15.556Z,6.88
2022-08-19T01:05:22.805Z,6.65
2022-08-19T01:06:24.643Z,6.88
2022-08-19T01:07:26.401Z,7.28
2022-08-19T01:08:28.183Z,6.68
2022-08-19T01:09:30.789Z,7.25
2022-08-19T01:10:40.342Z,6.65
2022-08-19T01:11:44.927Z,6.97
2022-08-19T01:12:48.095Z,7.05
2022-08-19T01:13:51.425Z,6.28
2022-08-19T01:14:53.633Z,6.82
2022-08-19T01:16:00.258Z,6.45
2022-08-19T01:17:02.775Z,6.15
2022-08-19T01:18:10.774Z,6.93
2022-08-19T01:19:20.808Z,6.05
2022-08-19T01:20:24.729Z,6.70
2022-08-19T01:21:39.192Z,6.75
2022-08-19T01:22:49.019Z,6.53
2022-08-19T01:23:51.103Z,6.15
2022-08-19T01:24:53.562Z,6.80
2022-08-19T01:25:57.078Z,6.53
2022-08-19T01:27:00.780Z,6.50
2022-08-19T01:28:10.568Z,7.10
2022-08-19T01:29:13.397Z,6.88
2022-08-19T01:30:21.319Z,5.90
2022-08-19T01:31:27.848Z,6.82
2022-08-19T01:32:33.338Z,6.32
2022-08-19T01:33:35.934Z,6.43
2022-08-19T01:34:37.742Z,6.50
2022-08-19T01:35:39.844Z,7.00
2022-08-19T01:36:48.156Z,6.50
2022-08-19T01:37:55.049Z,6.38
2022-08-19T01:38:59.169Z,6.70
2022-08-19T01:40:01.008Z,6.38
2022-08-19T01:41:02.979Z,6.20
2022-08-19T01:42:13.558Z,6.00
2022-08-19T01:43:16.229Z,6.50
2022-08-19T01:44:21.398Z,6.20
2022-08-19T01:45:25.587Z,5.95
2022-08-19T01:46:28.144Z,6.50
2022-08-19T01:47:29.881Z,6.28
2022-08-19T01:48:41.137Z,6.57
2022-08-19T01:49:42.893Z,6.07
2022-08-19T01:50:44.816Z,6.20
2022-08-19T01:51:47.099Z,6.30
2022-08-19T01:52:49.146Z,6.43
2022-08-19T01:54:04.474Z,6.20
2022-08-19T01:55:08.820Z,6.07
2022-08-19T01:56:10.548Z,5.80
2022-08-19T01:57:15.063Z,6.50
2022-08-19T01:58:24.087Z,6.53
2022-08-19T01:59:26.008Z,6.20
2022-08-19T02:00:30.751Z,6.43
2022-08-19T02:01:33.072Z,6.78
2022-08-19T02:02:35.129Z,6.30
2022-08-19T02:03:36.976Z,6.43
2022-08-19T02:04:39.674Z,6.13
2022-08-19T02:05:43.037Z,6.03
2022-08-19T02:06:45.065Z,6.47
2022-08-19T02:07:46.797Z,7.05
2022-08-19T02:08:50.160Z,6.05
2022-08-19T02:09:53.620Z,6.57
2022-08-19T02:10:55.367Z,6.20
2022-08-19T02:11:57.123Z,6.60
2022-08-19T02:12:59.190Z,6.68
2022-08-19T02:14:04.778Z,6.20
2022-08-19T02:15:08.606Z,6.07
2022-08-19T02:16:10.991Z,6.30
2022-08-19T02:17:12.701Z,6.38
2022-08-19T02:18:15.149Z,6.78
2022-08-19T02:19:16.871Z,6.93
2022-08-19T02:20:18.942Z,6.90
2022-08-19T02:21:22.817Z,6.90
2022-08-19T02:22:26.676Z,7.45
2022-08-19T02:23:28.458Z,7.00
2022-08-19T02:24:30.239Z,7.35
2022-08-19T02:25:32.147Z,6.68
2022-08-19T02:26:34.320Z,6.63
2022-08-19T02:27:36.077Z,7.20
2022-08-19T02:28:37.941Z,6.93
2022-08-19T02:29:39.656Z,6.75
2022-08-19T02:30:42.682Z,6.70
2022-08-19T02:31:44.483Z,6.50
2022-08-19T02:32:46.306Z,6.05
2022-08-19T02:33:49.023Z,6.65
2022-08-19T02:34:50.774Z,6.20
2022-08-19T02:35:52.482Z,6.80
2022-08-19T02:36:54.237Z,6.88
2022-08-19T02:38:14.838Z,7.25
2022-08-19T02:39:16.534Z,6.32
2022-08-19T02:40:18.966Z,6.68
2022-08-19T02:41:26.923Z,6.85
2022-08-19T02:42:28.955Z,6.80
2022-08-19T02:43:34.578Z,6.93
2022-08-19T02:44:36.442Z,7.38
2022-08-19T02:45:41.622Z,7.10
2022-08-19T02:46:45.861Z,7.03
2022-08-19T02:47:47.774Z,7.47
2022-08-19T02:48:54.738Z,7.35
2022-08-19T02:49:56.465Z,7.82
2022-08-19T02:50:58.187Z,8.02
2022-08-19T02:51:59.905Z,6.65
2022-08-19T02:53:01.911Z,7.15
2022-08-19T02:54:05.193Z,7.30
2022-08-19T02:55:07.389Z,7.20
2022-08-19T02:56:09.178Z,7.38
2022-08-19T02:57:11.429Z,6.57
2022-08-19T02:58:15.418Z,6.82
2022-08-19T02:59:17.178Z,6.93
2022-08-19T03:00:19.238Z,7.05
2022-08-19T03:01:32.574Z,6.68
2022-08-19T03:02:34.578Z,6.43
2022-08-19T03:03:36.321Z,6.45
2022-08-19T03:04:38.030Z,6.55
2022-08-19T03:05:56.108Z,6.35
2022-08-19T03:07:02.678Z,6.68
2022-08-19T03:08:14.057Z,7.00
2022-08-19T03:09:16.379Z,7.03
2022-08-19T03:10:18.159Z,7.13
2022-08-19T03:11:29.455Z,6.82
2022-08-19T03:12:31.276Z,7.30
2022-08-19T03:13:33.897Z,6.20
2022-08-19T03:14:35.716Z,6.22
2022-08-19T03:15:41.529Z,5.97
2022-08-19T03:16:49.828Z,6.85
2022-08-19T03:17:51.543Z,7.60
2022-08-19T03:18:54.234Z,7.13
2022-08-19T03:19:55.955Z,6.38
2022-08-19T03:20:58.260Z,7.00
2022-08-19T03:21:59.942Z,7.13
2022-08-19T03:23:01.723Z,6.53
2022-08-19T03:24:07.449Z,7.18
2022-08-19T03:25:09.299Z,6.90
2022-08-19T03:26:16.593Z,6.75
2022-08-19T03:27:18.906Z,6.40
2022-08-19T03:28:21.697Z,6.97
2022-08-19T03:29:28.349Z,6.22
2022-08-19T03:30:32.697Z,7.30
2022-08-19T03:31:44.564Z,7.13
2022-08-19T03:32:57.072Z,7.07
2022-08-19T03:33:59.163Z,6.75
2022-08-19T03:35:01.401Z,6.68
2022-08-19T03:36:24.418Z,6.85
2022-08-19T03:37:27.080Z,6.80
2022-08-19T03:38:29.319Z,6.43
2022-08-19T03:39:31.236Z,7.10
2022-08-19T03:40:35.855Z,6.90
2022-08-19T03:41:45.060Z,7.47
2022-08-19T03:42:49.316Z,7.70
2022-08-19T03:43:51.754Z,7.75
2022-08-19T03:44:53.746Z,8.52
2022-08-19T03:46:05.636Z,8.18
2022-08-19T03:47:07.491Z,8.00
2022-08-19T03:48:09.658Z,7.10
2022-08-19T03:49:11.368Z,7.40
2022-08-19T03:50:17.444Z,7.85
2022-08-19T03:51:30.664Z,7.90
2022-08-19T03:52:32.802Z,7.65
2022-08-19T03:53:36.061Z,6.63
2022-08-19T03:54:39.206Z,8.93
2022-08-19T03:55:42.608Z,8.68
2022-08-19T03:56:45.888Z,9.63
2022-08-19T03:57:48.789Z,7.50
2022-08-19T03:58:50.505Z,7.80
2022-08-19T03:59:52.208Z,6.05
2022-08-19T04:00:54.137Z,7.45
2022-08-19T04:01:57.987Z,7.32
2022-08-19T04:03:00.876Z,6.45
2022-08-19T04:04:03.449Z,6.93
2022-08-19T04:05:09.269Z,6.40
2022-08-19T04:06:16.934Z,6.00
2022-08-19T04:07:22.515Z,6.75
2022-08-19T04:08:24.289Z,6.32
2022-08-19T04:09:27.010Z,6.10
2022-08-19T04:10:29.415Z,6.20
2022-08-19T04:11:43.700Z,6.80
2022-08-19T04:12:47.460Z,6.15
2022-08-19T04:13:52.621Z,6.88
2022-08-19T04:14:54.328Z,6.25
2022-08-19T04:15:56.042Z,6.25
2022-08-19T04:16:58.862Z,6.80
2022-08-19T04:18:00.607Z,5.95
2022-08-19T04:19:05.184Z,5.88
2022-08-19T04:20:07.305Z,6.18
2022-08-19T04:21:15.780Z,6.43
2022-08-19T04:22:17.580Z,6.28
2022-08-19T04:23:19.919Z,6.70
2022-08-19T04:24:23.006Z,6.22
2022-08-19T04:25:24.715Z,5.70
2022-08-19T04:26:33.246Z,5.85
2022-08-19T04:27:35.204Z,6.05
2022-08-19T04:28:37.886Z,5.78
2022-08-19T04:29:40.642Z,6.07
2022-08-19T04:30:45.066Z,5.55
2022-08-19T04:31:47.628Z,5.80
2022-08-19T04:32:49.371Z,5.72
2022-08-19T04:33:51.745Z,5.97
2022-08-19T04:35:02.423Z,5.20
2022-08-19T04:36:23.996Z,5.88
2022-08-19T04:37:35.608Z,5.85
2022-08-19T04:38:37.592Z,5.60
2022-08-19T04:40:02.284Z,6.15
2022-08-19T04:41:23.108Z,5.53
2022-08-19T04:42:40.205Z,5.88
2022-08-19T04:43:41.923Z,5.47
2022-08-19T04:44:44.950Z,5.72
2022-08-19T04:45:48.128Z,5.60
2022-08-19T04:46:52.149Z,5.65
2022-08-19T04:47:58.805Z,5.97
2022-08-19T04:49:23.405Z,6.10
2022-08-19T04:50:26.850Z,5.78
2022-08-19T04:51:28.654Z,6.03
2022-08-19T04:52:32.643Z,5.70
2022-08-19T04:53:38.055Z,5.68
2022-08-19T04:54:40.089Z,5.93
2022-08-19T04:55:43.535Z,6.55
2022-08-19T04:56:45.281Z,6.57
2022-08-19T04:57:47.033Z,6.82
2022-08-19T04:58:49.510Z,7.35
2022-08-19T04:59:55.440Z,6.30
2022-08-19T05:00:57.222Z,6.93
2022-08-19T05:01:58.953Z,7.45
2022-08-19T05:03:00.696Z,8.05
2022-08-19T05:04:06.987Z,8.75
2022-08-19T05:05:08.971Z,7.13
2022-08-19T05:06:13.699Z,6.38
2022-08-19T05:07:15.438Z,5.93
2022-08-19T05:08:31.323Z,6.32
2022-08-19T05:09:57.757Z,7.13
2022-08-19T05:10:55.247Z,5.93
2022-08-19T05:11:56.966Z,5.93
2022-08-19T05:12:58.832Z,6.55
2022-08-19T05:14:00.553Z,6.45
2022-08-19T05:15:04.373Z,6.45
2022-08-19T05:16:06.664Z,6.28
2022-08-19T05:17:26.658Z,6.13
2022-08-19T05:18:48.309Z,5.80
2022-08-19T05:20:08.369Z,6.50
2022-08-19T05:21:33.978Z,5.78
2022-08-19T05:22:36.725Z,5.93
2022-08-19T05:23:38.873Z,5.93
2022-08-19T05:24:51.431Z,6.00
2022-08-19T05:26:02.841Z,5.78
2022-08-19T05:27:06.673Z,5.90
2022-08-19T05:28:08.410Z,5.97
2022-08-19T05:29:11.322Z,5.82
2022-08-19T05:30:13.653Z,5.80
2022-08-19T05:31:15.384Z,5.65
2022-08-19T05:32:17.259Z,5.75
2022-08-19T05:33:19.872Z,5.90
2022-08-19T05:34:25.717Z,6.03
2022-08-19T05:35:27.441Z,6.03
2022-08-19T05:36:34.144Z,5.68
2022-08-19T05:37:36.167Z,5.57
2022-08-19T05:38:38.197Z,5.90
2022-08-19T05:39:39.995Z,5.88
2022-08-19T05:40:41.770Z,5.88
2022-08-19T05:41:53.854Z,6.10
2022-08-19T05:42:55.682Z,6.50
2022-08-19T05:43:58.655Z,5.55
2022-08-19T05:45:00.388Z,5.75
2022-08-19T05:46:02.428Z,5.75
2022-08-19T05:47:06.333Z,5.93
2022-08-19T05:48:08.072Z,6.00
2022-08-19T05:49:10.052Z,5.50
2022-08-19T05:50:12.049Z,5.80
2022-08-19T05:51:14.387Z,5.95
2022-08-19T05:52:26.152Z,5.65
2022-08-19T05:53:28.208Z,5.60
2022-08-19T05:54:30.006Z,5.60
2022-08-19T05:55:32.238Z,5.07
2022-08-19T05:56:36.748Z,5.68
2022-08-19T05:57:40.631Z,5.55
2022-08-19T05:58:43.270Z,6.03
2022-08-19T05:59:47.312Z,5.55
2022-08-19T06:00:49.051Z,5.22
2022-08-19T06:01:56.727Z,5.32
2022-08-19T06:03:00.670Z,5.85
2022-08-19T06:04:11.467Z,5.75
2022-08-19T06:05:13.262Z,5.80
2022-08-19T06:06:17.308Z,5.45
2022-08-19T06:07:19.062Z,5.65
2022-08-19T06:08:34.008Z,5.38
2022-08-19T06:09:36.464Z,5.70
2022-08-19T06:10:38.196Z,5.68
2022-08-19T06:11:51.809Z,5.15
2022-08-19T06:12:55.064Z,5.38
2022-08-19T06:13:59.788Z,5.90
2022-08-19T06:15:05.583Z,5.95
2022-08-19T06:16:07.278Z,5.28
2022-08-19T06:17:09.351Z,5.50
2022-08-19T06:18:11.097Z,5.95
2022-08-19T06:19:16.839Z,5.47
2022-08-19T06:20:39.748Z,5.35
2022-08-19T06:21:44.500Z,5.68
2022-08-19T06:22:49.500Z,5.25
2022-08-19T06:23:52.584Z,5.25
2022-08-19T06:24:55.200Z,5.88
2022-08-19T06:25:56.926Z,5.35
2022-08-19T06:27:01.431Z,5.72
2022-08-19T06:28:19.369Z,5.78
2022-08-19T06:29:24.918Z,5.38
2022-08-19T06:30:26.868Z,5.60
2022-08-19T06:31:30.004Z,5.65
2022-08-19T06:32:32.374Z,5.55
2022-08-19T06:33:34.120Z,5.20
2022-08-19T06:34:35.924Z,5.18
2022-08-19T06:35:42.219Z,6.32
2022-08-19T06:36:47.524Z,5.35
2022-08-19T06:37:49.288Z,5.72
2022-08-19T06:38:51.027Z,4.90
2022-08-19T06:39:52.789Z,5.28
2022-08-19T06:41:07.624Z,5.40
2022-08-19T06:42:12.903Z,5.15
2022-08-19T06:43:16.665Z,5.60
2022-08-19T06:44:25.009Z,5.35
2022-08-19T06:45:34.571Z,5.40
2022-08-19T06:46:39.321Z,5.23
2022-08-19T06:47:48.087Z,5.10
2022-08-19T06:48:51.010Z,5.22
2022-08-19T06:50:00.984Z,5.22
2022-08-19T06:52:13.811Z,5.38
2022-08-19T06:53:15.875Z,5.55
2022-08-19T06:54:19.957Z,6.57
2022-08-19T06:55:22.043Z,4.75
2022-08-19T06:56:34.769Z,4.88
2022-08-19T06:57:36.530Z,4.70
2022-08-19T06:58:39.474Z,5.05
2022-08-19T06:59:41.873Z,5.28
2022-08-19T07:00:43.553Z,4.90
2022-08-19T07:01:51.752Z,4.70
2022-08-19T07:02:59.089Z,5.22
2022-08-19T07:04:03.466Z,5.50
2022-08-19T07:05:06.801Z,5.28
2022-08-19T07:06:32.601Z,5.15
2022-08-19T07:07:34.574Z,5.20
2022-08-19T07:09:45.495Z,5.13
2022-08-19T07:10:58.903Z,4.97
2022-08-19T07:12:00.673Z,4.82
2022-08-19T07:13:02.433Z,5.05
2022-08-19T07:14:04.599Z,5.43
2022-08-19T07:15:09.628Z,5.00
2022-08-19T07:16:15.664Z,5.05
2022-08-19T07:17:22.753Z,5.18
2022-08-19T07:18:24.569Z,5.18
2022-08-19T07:19:30.107Z,5.10
2022-08-19T07:20:32.075Z,5.30
2022-08-19T07:21:33.836Z,4.45
2022-08-19T07:22:40.618Z,4.95
2022-08-19T07:23:43.537Z,5.40
2022-08-19T07:24:51.433Z,5.38
2022-08-19T07:25:53.520Z,4.55
2022-08-19T07:27:01.487Z,5.00
2022-08-19T07:28:03.776Z,5.07
2022-08-19T07:29:06.739Z,5.60
2022-08-19T07:30:12.202Z,5.22
2022-08-19T07:31:22.744Z,5.30
2022-08-19T07:32:29.032Z,5.28
2022-08-19T07:33:33.597Z,5.35
2022-08-19T07:34:38.724Z,4.85
2022-08-19T07:35:41.991Z,4.72
2022-08-19T07:36:44.603Z,5.15
2022-08-19T07:37:46.901Z,5.50
2022-08-19T07:38:50.303Z,4.90
2022-08-19T07:39:52.093Z,4.95
2022-08-19T07:40:54.988Z,5.10
2022-08-19T07:41:59.021Z,5.20
2022-08-19T07:43:00.812Z,5.20
2022-08-19T07:44:04.859Z,4.97
2022-08-19T07:45:08.527Z,5.00
2022-08-19T07:47:49.930Z,5.10
2022-08-19T07:48:42.567Z,5.15
2022-08-19T07:49:44.293Z,4.75
2022-08-19T07:50:46.503Z,5.40
2022-08-19T07:51:54.717Z,4.70
2022-08-19T07:52:56.554Z,5.15
2022-08-19T07:53:58.664Z,5.20
2022-08-19T07:55:04.623Z,4.85
2022-08-19T07:56:07.280Z,4.22
2022-08-19T07:57:09.941Z,4.97
2022-08-19T07:58:19.038Z,4.53
2022-08-19T07:59:22.236Z,4.53
2022-08-19T08:00:24.919Z,4.47
2022-08-19T08:01:28.909Z,4.38
2022-08-19T08:02:30.777Z,4.80
2022-08-19T08:03:51.667Z,4.32
2022-08-19T08:05:12.139Z,4.53
2022-08-19T08:06:34.571Z,4.50
2022-08-19T08:07:54.597Z,4.20
2022-08-19T08:09:12.344Z,4.60
2022-08-19T08:10:19.973Z,3.80
2022-08-19T08:11:23.900Z,3.88
2022-08-19T08:12:36.717Z,3.83
2022-08-19T08:13:42.234Z,4.05
2022-08-19T08:14:50.158Z,3.78
2022-08-19T08:15:58.505Z,4.18
2022-08-19T08:17:00.614Z,4.78
2022-08-19T08:18:02.579Z,4.05
2022-08-19T08:19:20.266Z,3.85
2022-08-19T08:20:25.602Z,3.75
2022-08-19T08:21:27.485Z,3.95
2022-08-19T08:22:47.902Z,3.80
2022-08-19T08:23:51.074Z,3.83
2022-08-19T08:24:54.075Z,3.90
2022-08-19T08:25:58.101Z,3.50
2022-08-19T08:27:01.104Z,3.92
2022-08-19T08:28:03.782Z,4.10
2022-08-19T08:29:12.288Z,3.65
2022-08-19T08:30:24.348Z,3.60
2022-08-19T08:31:26.117Z,4.00
2022-08-19T08:32:28.034Z,3.70
2022-08-19T08:33:34.372Z,4.00
2022-08-19T08:34:38.169Z,4.00
2022-08-19T08:35:43.339Z,3.97
2022-08-19T08:36:47.183Z,3.63
2022-08-19T08:37:51.341Z,3.53
2022-08-19T08:40:13.066Z,3.60
2022-08-19T08:41:24.307Z,3.70
2022-08-19T08:42:35.650Z,3.80
2022-08-19T08:43:43.091Z,4.28
2022-08-19T08:45:00.582Z,3.40
2022-08-19T08:46:05.865Z,3.60
2022-08-19T08:47:16.562Z,3.60
2022-08-19T08:48:52.636Z,3.60
2022-08-19T08:50:19.032Z,3.65
2022-08-19T08:51:30.879Z,3.55
2022-08-19T08:52:43.484Z,4.00
2022-08-19T08:53:47.858Z,3.63
2022-08-19T08:54:55.158Z,3.22
2022-08-19T08:55:57.562Z,3.45
2022-08-19T08:56:59.310Z,3.38
2022-08-19T08:58:03.917Z,3.40
2022-08-19T08:59:11.215Z,3.53
2022-08-19T09:00:22.403Z,3.15
2022-08-19T09:01:24.286Z,3.50
2022-08-19T09:02:32.388Z,3.50
2022-08-19T09:03:34.122Z,3.03
2022-08-19T09:04:38.665Z,3.03
2022-08-19T09:06:01.919Z,2.88
2022-08-19T09:07:34.769Z,3.50
2022-08-19T09:08:41.733Z,3.05
2022-08-19T09:09:51.713Z,3.15
2022-08-19T09:10:56.455Z,3.53
2022-08-19T09:12:11.646Z,3.78
2022-08-19T09:13:37.918Z,3.13
2022-08-19T09:15:05.395Z,3.47
2022-08-19T09:16:17.193Z,3.28
2022-08-19T09:17:36.268Z,3.20
2022-08-19T09:18:43.050Z,3.53
2022-08-19T09:20:11.408Z,3.40
2022-08-19T09:21:14.201Z,3.50
2022-08-19T09:22:15.929Z,3.20
2022-08-19T09:23:28.038Z,3.55
2022-08-19T09:24:31.327Z,3.15
2022-08-19T09:25:35.521Z,3.30
2022-08-19T09:26:48.271Z,3.67
2022-08-19T09:28:02.765Z,3.00
2022-08-19T09:29:06.961Z,2.88
2022-08-19T09:30:11.263Z,3.05
2022-08-19T09:31:20.164Z,3.13
2022-08-19T09:32:26.943Z,3.30
2022-08-19T09:33:28.858Z,2.95
2022-08-19T09:34:37.913Z,3.40
2022-08-19T09:35:49.925Z,3.40
2022-08-19T09:36:56.399Z,3.35
2022-08-19T09:38:00.013Z,3.17
2022-08-19T09:39:02.425Z,3.00
2022-08-19T09:40:06.197Z,3.20
2022-08-19T09:41:12.583Z,3.28
2022-08-19T09:42:16.162Z,2.78
2022-08-19T09:43:33.152Z,3.08
2022-08-19T09:44:35.960Z,2.95
2022-08-19T09:45:37.759Z,2.65
2022-08-19T09:46:39.526Z,3.13
2022-08-19T09:47:41.219Z,3.08
2022-08-19T09:48:45.575Z,3.30
2022-08-19T09:49:49.967Z,2.80
2022-08-19T09:50:52.994Z,3.60
2022-08-19T09:51:57.174Z,3.05
2022-08-19T09:52:59.165Z,2.90
2022-08-19T09:54:04.720Z,3.08
2022-08-19T09:55:08.873Z,3.00
2022-08-19T09:56:12.476Z,2.72
2022-08-19T09:57:14.337Z,4.22
2022-08-19T09:58:16.063Z,2.67
2022-08-19T09:59:17.801Z,2.90
2022-08-19T10:00:19.711Z,3.63
2022-08-19T10:01:26.039Z,3.30
2022-08-19T10:02:29.053Z,3.00
2022-08-19T10:03:32.165Z,3.30
2022-08-19T10:04:52.439Z,3.03
2022-08-19T10:05:56.344Z,3.30
2022-08-19T10:06:58.034Z,3.03
2022-08-19T10:08:01.933Z,3.05
2022-08-19T10:09:11.963Z,2.85
2022-08-19T10:10:14.167Z,3.25
2022-08-19T10:11:28.854Z,2.97
2022-08-19T10:12:38.451Z,3.72
2022-08-19T10:13:40.182Z,3.25
2022-08-19T10:14:42.408Z,3.10
2022-08-19T10:15:47.736Z,2.95
2022-08-19T10:16:52.156Z,2.92
2022-08-19T10:17:55.322Z,3.20
2022-08-19T10:18:58.698Z,3.50
2022-08-19T10:20:04.240Z,3.40
2022-08-19T10:21:12.495Z,3.03
2022-08-19T10:22:14.918Z,2.85
2022-08-19T10:23:17.672Z,2.75
2022-08-19T10:24:21.663Z,3.42
2022-08-19T10:25:23.455Z,2.92
2022-08-19T10:26:28.372Z,3.20
2022-08-19T10:27:32.134Z,3.13
2022-08-19T10:28:38.947Z,3.00
2022-08-19T10:29:43.041Z,3.33
2022-08-19T10:30:48.749Z,3.20
2022-08-19T10:32:01.341Z,2.92
2022-08-19T10:33:08.296Z,3.00
2022-08-19T10:34:17.561Z,3.53
2022-08-19T10:35:30.575Z,3.88
2022-08-19T10:36:56.519Z,3.25
2022-08-19T10:38:03.450Z,2.95
2022-08-19T10:39:08.687Z,2.90
2022-08-19T10:40:12.525Z,3.00
2022-08-19T10:41:16.489Z,3.00
2022-08-19T10:42:19.681Z,3.47
2022-08-19T10:43:21.414Z,3.20
2022-08-19T10:44:24.288Z,3.10
2022-08-19T10:45:26.828Z,3.45
2022-08-19T10:46:33.678Z,3.20
2022-08-19T10:47:35.479Z,2.80
2022-08-19T10:48:37.910Z,3.00
2022-08-19T10:50:00.637Z,3.13
2022-08-19T10:51:22.734Z,2.97
2022-08-19T10:52:38.853Z,3.17
2022-08-19T10:53:40.855Z,3.40
2022-08-19T10:55:05.195Z,2.70
2022-08-19T10:56:28.470Z,2.75
2022-08-19T10:57:52.325Z,2.85
2022-08-19T10:58:55.021Z,2.75
2022-08-19T10:59:57.222Z,3.00
2022-08-19T11:01:00.097Z,3.10
2022-08-19T11:02:02.945Z,2.90
2022-08-19T11:03:04.835Z,2.88
2022-08-19T11:04:09.575Z,2.78
2022-08-19T11:05:12.582Z,3.20
2022-08-19T11:06:14.665Z,2.50
2022-08-19T11:07:16.696Z,2.85
2022-08-19T11:08:22.825Z,2.92
2022-08-19T11:09:34.043Z,2.80
2022-08-19T11:10:37.484Z,2.88
2022-08-19T11:11:41.963Z,2.92
2022-08-19T11:12:43.689Z,3.20
2022-08-19T11:13:46.737Z,2.80
2022-08-19T11:14:51.081Z,3.17
2022-08-19T11:16:08.714Z,2.90
2022-08-19T11:17:12.276Z,3.10
2022-08-19T11:18:14.419Z,3.28
2022-08-19T11:19:20.039Z,3.10
2022-08-19T11:20:21.765Z,2.88
2022-08-19T11:21:32.375Z,2.83
2022-08-19T11:22:40.546Z,3.08
2022-08-19T11:23:44.498Z,2.72
2022-08-19T11:24:46.204Z,2.90
2022-08-19T11:25:47.949Z,3.05
2022-08-19T11:26:51.383Z,2.90
2022-08-19T11:27:53.514Z,2.65
2022-08-19T11:28:56.204Z,2.97
2022-08-19T11:29:57.896Z,2.80
2022-08-19T11:30:59.679Z,3.03
2022-08-19T11:32:04.871Z,2.85
2022-08-19T11:33:06.621Z,3.10
2022-08-19T11:34:10.750Z,2.92
2022-08-19T11:35:12.543Z,3.10
2022-08-19T11:36:15.068Z,3.30
2022-08-19T11:37:17.096Z,2.92
2022-08-19T11:38:19.528Z,3.25
2022-08-19T11:39:23.119Z,2.90
2022-08-19T11:40:24.975Z,3.10
2022-08-19T11:41:26.831Z,2.80
2022-08-19T11:42:47.175Z,3.22
2022-08-19T11:43:48.946Z,3.13
2022-08-19T11:44:51.201Z,6.55
2022-08-19T11:45:53.117Z,3.00
2022-08-19T11:46:54.866Z,3.08
2022-08-19T11:47:57.038Z,2.72
2022-08-19T11:49:01.515Z,3.10
2022-08-19T11:50:03.562Z,3.15
2022-08-19T11:51:09.793Z,2.70
2022-08-19T11:52:11.840Z,3.03
2022-08-19T11:53:13.554Z,3.28
2022-08-19T11:54:17.156Z,3.20
2022-08-19T11:55:19.693Z,3.10
2022-08-19T11:56:22.005Z,3.63
2022-08-19T11:57:23.703Z,3.22
2022-08-19T11:58:26.018Z,3.38
2022-08-19T11:59:28.317Z,3.15
2022-08-19T12:00:31.501Z,2.85
2022-08-19T12:01:33.242Z,2.85
2022-08-19T12:02:34.994Z,2.85
2022-08-19T12:03:37.890Z,2.72
2022-08-19T12:04:39.597Z,2.83
2022-08-19T12:05:42.156Z,3.13
2022-08-19T12:06:43.845Z,3.00
2022-08-19T12:07:45.590Z,3.10
2022-08-19T12:08:48.543Z,2.88
2022-08-19T12:09:50.281Z,3.00
2022-08-19T12:10:52.184Z,2.85
2022-08-19T12:11:53.976Z,3.17
2022-08-19T12:12:58.960Z,2.80
2022-08-19T12:14:00.987Z,3.40
2022-08-19T12:15:03.334Z,4.28
2022-08-19T12:16:27.839Z,3.20
2022-08-19T12:17:31.906Z,3.13
2022-08-19T12:18:33.809Z,3.20
2022-08-19T12:19:38.059Z,3.25
2022-08-19T12:20:44.946Z,3.13
2022-08-19T12:21:46.673Z,3.30
2022-08-19T12:22:49.534Z,3.45
2022-08-19T12:23:55.712Z,3.10
2022-08-19T12:24:59.439Z,3.17
2022-08-19T12:26:01.222Z,2.63
2022-08-19T12:27:03.335Z,2.97
2022-08-19T12:28:05.268Z,3.30
2022-08-19T12:29:09.495Z,3.20
2022-08-19T12:30:13.412Z,2.90
2022-08-19T12:31:16.272Z,3.30
2022-08-19T12:32:18.047Z,2.88
2022-08-19T12:33:24.809Z,3.00
2022-08-19T12:34:26.879Z,3.15
2022-08-19T12:35:29.887Z,3.10
2022-08-19T12:36:31.593Z,3.30
2022-08-19T12:37:34.999Z,3.00
2022-08-19T12:38:38.198Z,3.38
2022-08-19T12:39:43.049Z,3.33
2022-08-19T12:40:49.261Z,3.05
2022-08-19T12:41:54.073Z,3.38
2022-08-19T12:42:56.785Z,3.30
2022-08-19T12:43:59.400Z,3.20
2022-08-19T12:45:02.725Z,3.70
2022-08-19T12:46:07.253Z,3.25
2022-08-19T12:47:18.097Z,3.10
2022-08-19T12:48:33.982Z,3.30
2022-08-19T12:49:53.506Z,3.35
2022-08-19T12:50:57.786Z,3.55
2022-08-19T12:51:59.518Z,6.90
2022-08-19T12:53:01.339Z,3.70
2022-08-19T12:54:03.598Z,3.25
2022-08-19T12:55:07.985Z,3.70
2022-08-19T12:56:12.741Z,3.70
2022-08-19T12:57:14.729Z,3.63
2022-08-19T12:58:16.464Z,3.55
2022-08-19T12:59:19.181Z,4.07
2022-08-19T13:00:22.726Z,3.40
2022-08-19T13:01:24.576Z,3.33
2022-08-19T13:02:26.971Z,3.97
2022-08-19T13:03:30.678Z,3.58
2022-08-19T13:04:32.684Z,3.65
2022-08-19T13:05:35.345Z,3.50
2022-08-19T13:06:37.996Z,3.03
2022-08-19T13:07:41.250Z,3.75
2022-08-19T13:08:43.010Z,3.50
2022-08-19T13:09:48.246Z,3.42
2022-08-19T13:10:50.000Z,3.40
2022-08-19T13:11:51.684Z,3.38
2022-08-19T13:12:54.334Z,3.50
2022-08-19T13:13:56.366Z,3.25
2022-08-19T13:14:58.194Z,3.38
2022-08-19T13:16:04.342Z,3.88
2022-08-19T13:17:06.056Z,3.30
2022-08-19T13:18:10.252Z,3.67
2022-08-19T13:19:14.201Z,3.65
2022-08-19T13:20:19.969Z,3.70
2022-08-19T13:21:24.400Z,3.30
2022-08-19T13:22:26.553Z,3.60
2022-08-19T13:23:28.238Z,3.30
2022-08-19T13:24:33.585Z,3.85
2022-08-19T13:25:37.328Z,3.60
2022-08-19T13:26:39.050Z,3.35
2022-08-19T13:27:41.467Z,3.30
2022-08-19T13:29:02.938Z,3.70
2022-08-19T13:30:26.017Z,3.08
2022-08-19T13:31:49.546Z,3.63
2022-08-19T13:33:10.141Z,3.40
2022-08-19T13:34:12.345Z,2.97
2022-08-19T13:35:16.853Z,3.30
2022-08-19T13:36:18.790Z,3.38
2022-08-19T13:37:40.455Z,3.28
2022-08-19T13:38:42.170Z,3.40
2022-08-19T13:39:44.011Z,3.28
2022-08-19T13:40:46.051Z,3.42
2022-08-19T13:41:49.135Z,3.45
2022-08-19T13:42:53.328Z,3.22
2022-08-19T13:43:55.389Z,3.42
2022-08-19T13:44:57.126Z,3.33
2022-08-19T13:45:58.876Z,3.30
2022-08-19T13:47:08.196Z,3.28
2022-08-19T13:48:10.202Z,3.80
2022-08-19T13:49:14.265Z,3.38
2022-08-19T13:50:19.462Z,3.30
2022-08-19T13:51:21.173Z,3.78
2022-08-19T13:52:22.890Z,3.38
2022-08-19T13:53:24.838Z,3.55
2022-08-19T13:54:28.097Z,3.95
2022-08-19T13:55:29.845Z,3.58
2022-08-19T13:56:31.610Z,3.35
2022-08-19T13:57:33.867Z,3.70
2022-08-19T13:58:35.653Z,3.65
2022-08-19T13:59:37.363Z,3.70
2022-08-19T14:00:43.011Z,3.67
2022-08-19T14:01:45.138Z,3.70
2022-08-19T14:02:48.863Z,3.75
2022-08-19T14:03:50.880Z,3.50
2022-08-19T14:04:52.615Z,3.72
2022-08-19T14:05:54.506Z,3.80
2022-08-19T14:06:56.228Z,3.53
2022-08-19T14:07:58.537Z,3.35
2022-08-19T14:09:00.835Z,3.70
2022-08-19T14:10:03.840Z,3.53
2022-08-19T14:11:06.298Z,3.50
2022-08-19T14:12:09.437Z,4.00
2022-08-19T14:13:11.692Z,3.35
2022-08-19T14:14:16.323Z,3.45
2022-08-19T14:15:18.340Z,3.50
2022-08-19T14:16:20.090Z,3.60
2022-08-19T14:17:22.546Z,3.10
2022-08-19T14:18:26.121Z,3.30
2022-08-19T14:19:30.435Z,3.70
2022-08-19T14:20:36.235Z,3.33
2022-08-19T14:21:41.485Z,3.42
2022-08-19T14:22:44.606Z,2.92
2022-08-19T14:23:46.295Z,3.35
2022-08-19T14:24:49.356Z,3.58
2022-08-19T14:25:51.101Z,3.40
2022-08-19T14:26:52.809Z,3.40
2022-08-19T14:27:56.692Z,3.83
2022-08-19T14:28:58.922Z,3.55
2022-08-19T14:30:00.639Z,3.83
2022-08-19T14:31:02.369Z,3.53
2022-08-19T14:32:04.392Z,3.78